Time;durP1;ratioP1;P1;durP2;ratioP2;P2;SDS_P1;SDS_P2;PMS_P1;PMS_P2;Temp;Humidity;BMP_temperature;BMP_pressure;BME280_temperature;BME280_humidity;BME280_pressure;Samples;Min_cycle;Max_cycle;Signal;HPM_P1;HPM_P2
2021/03/21 00:00:11;;;;;;;16.10;11.35;;;;;;;10.02;58.51;102413.53;4968151;28;109647;-70
2021/03/21 00:02:38;;;;;;;18.08;11.35;;;;;;;10.06;58.34;102425.84;4965372;28;109830;-70
2021/03/21 00:05:06;;;;;;;16.00;11.20;;;;;;;10.07;58.26;102411.69;4965607;28;125765;-70
2021/03/21 00:07:32;;;;;;;15.57;10.82;;;;;;;10.10;58.19;102419.59;4950373;28;123581;-70
2021/03/21 00:09:59;;;;;;;15.32;10.50;;;;;;;10.12;58.13;102423.09;4962179;28;109511;-70
2021/03/21 00:12:25;;;;;;;15.93;10.20;;;;;;;10.15;58.34;102417.72;4969855;28;110250;-70
2021/03/21 00:14:52;;;;;;;17.55;11.02;;;;;;;10.18;58.28;102420.31;4963309;28;123835;-70
2021/03/21 00:17:18;;;;;;;15.73;10.48;;;;;;;10.18;58.33;102422.97;4970929;28;123620;-70
2021/03/21 00:19:45;;;;;;;14.63;10.57;;;;;;;10.21;58.44;102429.97;4968794;28;109359;-71
2021/03/21 00:22:12;;;;;;;15.65;10.57;;;;;;;10.20;57.98;102437.03;4969559;28;110092;-71
2021/03/21 00:24:38;;;;;;;14.73;10.93;;;;;;;10.22;57.84;102437.88;4968835;28;124223;-70
2021/03/21 00:27:07;;;;;;;16.52;10.88;;;;;;;10.21;58.24;102436.16;4967126;28;124696;-70
2021/03/21 00:29:34;;;;;;;16.23;11.27;;;;;;;10.20;58.14;102434.41;4968809;28;108889;-70
2021/03/21 00:32:01;;;;;;;17.02;10.98;;;;;;;10.18;57.99;102425.59;4962834;28;109894;-70
2021/03/21 00:34:28;;;;;;;15.32;11.05;;;;;;;10.19;58.19;102427.38;4942891;28;124313;-71
2021/03/21 00:36:54;;;;;;;16.23;10.88;;;;;;;10.18;58.06;102420.31;4965380;28;123461;-71
2021/03/21 00:39:21;;;;;;;14.30;10.60;;;;;;;10.15;58.09;102415.06;4968286;28;109729;-70
2021/03/21 00:41:47;;;;;;;16.10;9.82;;;;;;;10.14;58.09;102424.78;4951511;28;108689;-70
2021/03/21 00:44:14;;;;;;;13.90;9.55;;;;;;;10.14;58.47;102418.63;4963993;28;123751;-73
2021/03/21 00:46:41;;;;;;;12.55;9.10;;;;;;;10.13;58.47;102416.88;4951720;28;123107;-71
2021/03/21 00:49:08;;;;;;;14.00;9.10;;;;;;;10.11;58.17;102416.91;4960377;28;109090;-70
2021/03/21 00:51:34;;;;;;;13.77;9.27;;;;;;;10.10;58.30;102411.66;4969354;28;109373;-71
2021/03/21 00:54:01;;;;;;;12.32;8.68;;;;;;;10.10;58.26;102407.22;4967225;28;123422;-72
2021/03/21 00:56:37;;;;;;;13.57;9.10;;;;;;;10.11;58.36;102408.97;4971644;28;124285;-70
2021/03/21 00:59:05;;;;;;;13.48;9.10;;;;;;;10.10;58.44;102401.06;4969328;28;108979;-70
2021/03/21 01:01:33;;;;;;;13.35;8.50;;;;;;;10.09;58.33;102409.88;4970868;28;108876;-70
2021/03/21 01:04:02;;;;;;;11.57;8.80;;;;;;;10.08;58.50;102402.88;4969483;28;125905;-70
2021/03/21 01:06:29;;;;;;;12.85;9.10;;;;;;;10.06;58.76;102381.72;4972306;28;124366;-69
2021/03/21 01:09:03;;;;;;;14.38;9.13;;;;;;;10.08;58.58;102381.69;4972429;28;108976;-70
2021/03/21 01:11:33;;;;;;;16.30;8.77;;;;;;;10.06;58.40;102383.50;4970987;28;109082;-70
2021/03/21 01:14:00;;;;;;;12.82;8.80;;;;;;;10.06;58.50;102375.53;4970860;28;124367;-70
2021/03/21 01:16:31;;;;;;;12.05;8.60;;;;;;;10.06;58.62;102362.31;4952672;28;122301;-70
2021/03/21 01:18:59;;;;;;;13.65;8.70;;;;;;;10.06;58.48;102343.78;4971831;28;108983;-70
2021/03/21 01:21:28;;;;;;;15.55;9.18;;;;;;;10.05;58.80;102344.66;4966181;28;108688;-70
2021/03/21 01:23:55;;;;;;;16.52;9.27;;;;;;;10.05;58.80;102342.03;4960148;28;124786;-70
2021/03/21 01:26:24;;;;;;;12.88;8.77;;;;;;;10.05;58.73;102344.66;4988363;22;123295;-67
2021/03/21 01:28:53;;;;;;;16.80;9.95;;;;;;;10.05;58.48;102344.66;4939362;28;109221;-67
2021/03/21 01:31:22;;;;;;;14.82;9.48;;;;;;;10.03;58.62;102346.47;4952031;28;109768;-68
2021/03/21 01:33:49;;;;;;;14.43;10.13;;;;;;;10.01;58.98;102338.56;4952595;28;123138;-67
2021/03/21 01:36:37;;;;;;;14.70;9.75;;;;;;;10.00;58.82;102341.22;4954678;28;124022;-67
2021/03/21 01:39:08;;;;;;;14.98;9.77;;;;;;;10.00;58.90;102336.81;4934913;28;108271;-67
2021/03/21 01:41:39;;;;;;;16.90;10.60;;;;;;;10.01;58.76;102337.69;4955085;28;109142;-67
2021/03/21 01:44:09;;;;;;;15.93;10.63;;;;;;;10.00;59.00;102325.34;4950573;28;124003;-67
2021/03/21 01:46:36;;;;;;;16.63;10.60;;;;;;;10.00;58.96;102326.25;4954504;28;123161;-67
2021/03/21 01:49:13;;;;;;;15.10;10.73;;;;;;;10.00;59.14;102325.34;4956314;28;109301;-67
2021/03/21 01:51:41;;;;;;;14.15;9.95;;;;;;;9.98;58.83;102321.84;4955621;28;109151;-67
2021/03/21 01:54:11;;;;;;;16.17;10.05;;;;;;;9.95;59.02;102322.78;4954192;28;124881;-67
2021/03/21 01:56:39;;;;;;;12.88;8.68;;;;;;;9.96;59.24;102318.38;4956014;28;124280;-67
2021/03/21 01:59:21;;;;;;;12.35;8.40;;;;;;;9.96;59.00;102318.38;4956639;28;109354;-67
2021/03/21 02:01:49;;;;;;;12.15;8.23;;;;;;;9.96;58.78;102323.66;4950642;28;108234;-67
2021/03/21 02:04:17;;;;;;;9.80;7.25;;;;;;;9.91;58.85;102311.41;4953666;28;124016;-67
2021/03/21 02:07:05;;;;;;;10.55;7.15;;;;;;;9.89;59.24;102302.63;4953134;28;123961;-68
2021/03/21 02:09:53;;;;;;;9.88;6.65;;;;;;;9.89;58.97;102305.25;4955528;28;109359;-67
2021/03/21 02:12:47;;;;;;;7.75;5.45;;;;;;;9.86;58.97;102302.66;4953013;28;109005;-67
2021/03/21 02:15:34;;;;;;;8.88;5.55;;;;;;;9.81;59.00;102309.81;4951850;28;124769;-67
2021/03/21 02:18:12;;;;;;;8.35;5.20;;;;;;;9.79;59.36;102295.72;4952179;28;123941;-67
2021/03/21 02:21:16;;;;;;;9.00;5.38;;;;;;;9.78;59.21;102299.28;4952842;28;110237;-67
2021/03/21 02:23:51;;;;;;;10.02;5.78;;;;;;;9.79;58.99;102290.44;4953105;28;109240;-67
2021/03/21 02:26:43;;;;;;;9.65;6.30;;;;;;;9.78;59.38;102283.41;4952950;28;122147;-67
2021/03/21 02:29:24;;;;;;;10.98;6.93;;;;;;;9.78;59.28;102277.25;4953973;28;123661;-67
2021/03/21 02:31:56;;;;;;;12.30;7.82;;;;;;;9.77;59.42;102275.50;4953852;28;109545;-67
2021/03/21 02:34:31;;;;;;;12.23;7.78;;;;;;;9.77;59.66;102276.38;4950530;28;108408;-67
2021/03/21 02:37:17;;;;;;;15.65;8.57;;;;;;;9.78;59.46;102275.47;4952246;28;123110;-67
2021/03/21 02:39:54;;;;;;;17.85;9.57;;;;;;;9.77;59.52;102265.78;4937676;28;122854;-67
2021/03/21 02:42:28;;;;;;;17.48;10.23;;;;;;;9.75;59.91;102262.28;4951041;28;108705;-66
2021/03/21 02:45:01;;;;;;;16.52;11.05;;;;;;;9.74;59.61;102266.72;4951740;28;110759;-67
2021/03/21 02:47:29;;;;;;;16.63;11.25;;;;;;;9.73;59.58;102258.81;4963399;28;123579;-67
2021/03/21 02:50:16;;;;;;;17.90;11.68;;;;;;;9.73;59.61;102253.50;4951205;28;122774;-68
2021/03/21 02:52:48;;;;;;;20.23;13.48;;;;;;;9.75;59.73;102251.72;4948368;28;112704;-67
2021/03/21 02:55:44;;;;;;;20.70;13.82;;;;;;;9.74;59.53;102249.97;4951492;28;110219;-67
2021/03/21 02:58:20;;;;;;;20.67;14.82;;;;;;;9.76;59.57;102237.59;4950916;28;123918;-67
2021/03/21 03:00:56;;;;;;;23.00;15.23;;;;;;;9.76;59.59;102237.59;4948683;28;124714;-67
2021/03/21 03:03:25;;;;;;;22.63;15.23;;;;;;;9.77;59.80;102233.16;4947520;28;108332;-67
2021/03/21 03:05:58;;;;;;;25.52;16.70;;;;;;;9.77;60.10;102222.59;4952107;28;110790;-67
2021/03/21 03:08:34;;;;;;;31.50;17.23;;;;;;;9.76;60.04;102216.44;4951880;28;124278;-67
2021/03/21 03:11:08;;;;;;;25.60;17.27;;;;;;;9.77;59.98;102218.16;4949903;28;122899;-67
2021/03/21 03:13:50;;;;;;;26.67;17.70;;;;;;;9.77;59.90;102202.28;4949275;28;110254;-67
2021/03/21 03:16:23;;;;;;;30.30;17.90;;;;;;;9.77;60.03;102196.13;4951137;28;108787;-67
2021/03/21 03:19:17;;;;;;;26.80;17.92;;;;;;;9.78;59.91;102204.03;4951000;28;124117;-67
2021/03/21 03:21:58;;;;;;;27.45;17.67;;;;;;;9.78;59.96;102222.56;4950261;28;123893;-67
2021/03/21 03:24:41;;;;;;;27.60;17.38;;;;;;;9.79;60.24;102232.22;4935695;28;108612;-67
2021/03/21 03:27:34;;;;;;;25.73;17.55;;;;;;;9.79;60.09;102226.94;4952211;28;109960;-67
2021/03/21 03:30:16;;;;;;;32.67;18.80;;;;;;;9.81;60.37;102230.41;4949171;28;123888;-68
2021/03/21 03:32:43;;;;;;;28.25;18.50;;;;;;;9.83;60.13;102223.34;4950801;28;124267;-67
2021/03/21 03:35:13;;;;;;;30.77;20.30;;;;;;;9.84;59.98;102230.38;4952633;28;109872;-67
2021/03/21 03:37:40;;;;;;;35.65;21.95;;;;;;;9.85;60.26;102237.41;4951291;28;110353;-68
2021/03/21 03:40:09;;;;;;;31.02;21.00;;;;;;;9.84;60.14;102240.94;4950297;28;124287;-68
2021/03/21 03:43:01;;;;;;;38.50;22.90;;;;;;;9.85;60.04;102236.53;4949795;28;122175;-67
2021/03/21 03:45:40;;;;;;;32.92;21.42;;;;;;;9.85;60.20;102237.41;4949100;28;109550;-66
2021/03/21 03:48:31;;;;;;;38.10;24.05;;;;;;;9.86;60.26;102236.50;4951771;28;110034;-67
2021/03/21 03:51:09;;;;;;;40.03;23.83;;;;;;;9.88;60.01;102239.13;4947762;28;123971;-68
2021/03/21 03:53:54;;;;;;;40.17;25.65;;;;;;;9.87;60.25;102230.31;4950616;28;125943;-67
2021/03/21 03:56:28;;;;;;;41.23;25.30;;;;;;;9.87;60.24;102230.31;4952299;28;109534;-67
2021/03/21 03:59:19;;;;;;;42.95;25.75;;;;;;;9.88;60.15;102232.06;4949707;28;110096;-66
2021/03/21 04:01:56;;;;;;;39.92;26.08;;;;;;;9.89;60.60;102233.81;4950490;28;124311;-66
2021/03/21 04:04:35;;;;;;;44.55;26.30;;;;;;;9.91;60.51;102232.00;4945873;28;123406;-66
2021/03/21 04:07:29;;;;;;;43.17;26.63;;;;;;;9.93;60.29;102235.47;4951823;28;110218;-67
2021/03/21 04:10:03;;;;;;;44.35;27.50;;;;;;;9.94;60.21;102231.94;4949516;28;109055;-68
2021/03/21 04:12:39;;;;;;;43.85;26.77;;;;;;;9.96;60.51;102233.69;4950263;28;123882;-66
2021/03/21 04:15:15;;;;;;;42.17;27.00;;;;;;;9.97;60.58;102235.44;4949291;28;123727;-67
2021/03/21 04:18:07;;;;;;;43.20;26.87;;;;;;;9.98;60.32;102231.88;4952772;28;109741;-67
2021/03/21 04:20:43;;;;;;;43.67;27.33;;;;;;;9.98;60.44;102237.16;4951966;28;109297;-68
2021/03/21 04:23:33;;;;;;;43.63;27.60;;;;;;;9.97;60.41;102235.44;4948497;28;124791;-67
2021/03/21 04:26:06;;;;;;;42.50;26.13;;;;;;;9.97;60.70;102230.13;4948616;28;124184;-67
2021/03/21 04:28:43;;;;;;;41.00;25.75;;;;;;;9.96;60.56;102236.31;4950483;28;108998;-67
2021/03/21 04:31:14;;;;;;;39.55;25.63;;;;;;;9.96;60.85;102233.69;4948961;28;109966;-67
2021/03/21 04:33:49;;;;;;;43.03;25.52;;;;;;;9.96;60.54;102236.31;4949511;28;124774;-67
2021/03/21 04:36:36;;;;;;;43.10;24.95;;;;;;;9.97;60.91;102235.44;4953092;28;124389;-66
2021/03/21 04:39:05;;;;;;;39.13;24.58;;;;;;;9.98;60.84;102231.88;4953211;28;108620;-67
2021/03/21 04:41:57;;;;;;;39.30;23.83;;;;;;;9.98;60.71;102222.16;4953305;28;109291;-67
2021/03/21 04:44:30;;;;;;;38.45;25.00;;;;;;;9.99;60.79;102212.44;4954145;28;124254;-67
2021/03/21 04:47:06;;;;;;;38.15;24.52;;;;;;;9.98;60.91;102230.09;4952319;28;124799;-66
2021/03/21 04:49:33;;;;;;;37.50;23.70;;;;;;;9.98;60.52;102232.72;4951565;28;109690;-67
2021/03/21 04:52:17;;;;;;;37.95;23.52;;;;;;;9.99;61.06;102238.91;4955429;28;110423;-67
2021/03/21 04:54:47;;;;;;;39.53;24.42;;;;;;;10.00;61.04;102240.66;4952106;28;124441;-67
2021/03/21 04:57:25;;;;;;;38.70;24.08;;;;;;;10.00;61.00;102235.34;4952714;28;123660;-67
2021/03/21 04:59:52;;;;;;;36.13;24.50;;;;;;;10.02;60.73;102233.53;4953210;28;108988;-68
2021/03/21 05:02:28;;;;;;;35.60;24.33;;;;;;;10.03;61.04;102235.31;4955271;28;110406;-67
2021/03/21 05:05:07;;;;;;;38.05;24.48;;;;;;;10.03;60.92;102224.72;4951670;28;124012;-67
2021/03/21 05:07:42;;;;;;;37.83;24.52;;;;;;;10.03;61.33;102230.00;4952923;28;124563;-67
2021/03/21 05:10:15;;;;;;;;;;;;;;;10.02;60.71;102225.59;4949167;28;109373;-67
2021/03/21 05:12:50;;;;;;;37.95;23.95;;;;;;;10.02;60.59;102222.94;4952468;28;109252;-67
2021/03/21 05:15:31;;;;;;;35.17;22.83;;;;;;;10.00;61.19;102219.47;4953010;28;123166;-67
2021/03/21 05:18:28;;;;;;;36.03;23.05;;;;;;;9.99;61.12;102215.97;4950464;28;123865;-67
2021/03/21 05:21:07;;;;;;;35.15;22.27;;;;;;;10.00;61.12;102208.88;4963928;28;109238;-67
2021/03/21 05:23:48;;;;;;;34.22;21.35;;;;;;;9.98;61.21;102213.34;4952747;28;108978;-67
2021/03/21 05:26:36;;;;;;;34.53;21.40;;;;;;;9.97;61.16;102204.53;4952305;28;124725;-67
2021/03/21 05:29:37;;;;;;;32.88;20.98;;;;;;;9.97;61.17;102204.53;4953158;28;123427;-67
2021/03/21 05:32:10;;;;;;;33.40;20.55;;;;;;;9.97;61.40;102215.13;4951639;28;108436;-67
2021/03/21 05:34:37;;;;;;;28.02;18.83;;;;;;;9.98;61.01;102216.00;4952758;28;109156;-67
2021/03/21 05:37:29;;;;;;;33.35;19.75;;;;;;;9.96;60.95;102212.50;4951775;28;124267;-67
2021/03/21 05:40:08;;;;;;;26.80;18.13;;;;;;;9.96;61.30;102209.84;4950996;28;123942;-67
2021/03/21 05:42:57;;;;;;;29.17;17.92;;;;;;;9.97;61.08;102219.56;4962922;28;109459;-67
2021/03/21 05:46:11;;;;;;;31.92;19.17;;;;;;;9.96;61.01;102229.25;4952511;28;110524;-68
2021/03/21 05:48:51;;;;;;;31.27;19.05;;;;;;;9.94;60.94;102229.31;4933019;28;125062;-67
2021/03/21 05:51:42;;;;;;;30.23;18.88;;;;;;;9.94;61.29;102231.94;4969083;28;123014;-67
2021/03/21 05:54:32;;;;;;;28.02;17.40;;;;;;;9.96;61.37;102231.03;4951223;28;110178;-67
2021/03/21 05:57:08;;;;;;;29.63;17.58;;;;;;;9.96;61.19;102244.25;4953340;28;109993;-67
2021/03/21 05:59:59;;;;;;;29.10;18.38;;;;;;;9.97;61.17;102240.72;4949280;28;123994;-67
2021/03/21 06:02:35;;;;;;;25.15;15.80;;;;;;;9.98;61.10;102253.03;4950910;28;123329;-68
2021/03/21 06:05:27;;;;;;;22.23;13.70;;;;;;;9.96;61.05;102249.56;4950836;28;108597;-67
2021/03/21 06:08:21;;;;;;;20.60;12.48;;;;;;;9.97;61.09;102240.72;4955519;28;110766;-67
2021/03/21 06:11:07;;;;;;;21.75;12.18;;;;;;;9.99;60.99;102238.91;4953821;28;124471;-67
2021/03/21 06:14:27;;;;;;;22.33;11.68;;;;;;;10.00;60.85;102238.00;4950919;28;123974;-67
2021/03/21 06:17:32;;;;;;;21.45;11.80;;;;;;;10.02;60.67;102241.47;4953349;28;108607;-67
2021/03/21 06:19:59;;;;;;;17.63;10.63;;;;;;;10.06;60.62;102245.84;4950756;28;110737;-67
2021/03/21 06:22:53;;;;;;;19.45;10.88;;;;;;;10.07;60.54;102247.56;4952180;28;124311;-67
2021/03/21 06:25:28;;;;;;;16.27;8.82;;;;;;;10.09;60.41;102240.47;4948671;28;124172;-67
2021/03/21 06:28:32;;;;;;;13.40;8.57;;;;;;;10.08;60.54;102238.75;4951639;28;109491;-67
2021/03/21 06:31:18;;;;;;;15.00;8.27;;;;;;;10.07;60.17;102236.97;4968325;28;108949;-67
2021/03/21 06:34:07;;;;;;;14.40;7.78;;;;;;;10.09;60.51;102245.75;4952877;28;124072;-67
2021/03/21 06:36:57;;;;;;;16.23;7.43;;;;;;;10.07;60.08;102247.56;4952297;28;123783;-67
2021/03/21 06:39:45;;;;;;;16.33;7.18;;;;;;;10.07;60.09;102247.56;4953399;28;108833;-68
2021/03/21 06:42:35;;;;;;;11.95;6.80;;;;;;;10.08;60.19;102249.31;4952448;28;108995;-67
2021/03/21 06:45:23;;;;;;;14.20;5.93;;;;;;;10.09;60.19;102251.06;4948578;28;124545;-67
2021/03/21 06:48:01;;;;;;;10.57;4.70;;;;;;;10.10;59.95;102258.97;4951974;28;123805;-68
2021/03/21 06:50:48;;;;;;;10.25;5.25;;;;;;;10.11;60.06;102259.81;4949630;28;110599;-67
2021/03/21 06:53:41;;;;;;;10.40;4.28;;;;;;;10.12;59.89;102266.88;4951850;28;109757;-67
2021/03/21 06:56:57;;;;;;;8.23;4.53;;;;;;;10.15;59.82;102266.81;4946466;28;124770;-68
2021/03/21 06:59:49;;;;;;;10.23;3.93;;;;;;;10.15;59.82;102272.09;4951822;28;123671;-67
2021/03/21 07:02:55;;;;;;;9.80;3.80;;;;;;;10.17;59.87;102265.03;4951979;28;109474;-68
2021/03/21 07:05:44;;;;;;;9.30;4.00;;;;;;;10.19;59.81;102273.81;4949500;28;108974;-68
2021/03/21 07:08:29;;;;;;;13.13;4.10;;;;;;;10.22;59.83;102283.44;4950823;28;123171;-67
2021/03/21 07:11:14;;;;;;;9.20;4.00;;;;;;;10.22;59.84;102279.00;4949525;28;122959;-68
2021/03/21 07:14:15;;;;;;;13.10;4.35;;;;;;;10.24;60.06;102282.50;4968644;28;108406;-67
2021/03/21 07:17:09;;;;;;;10.68;3.95;;;;;;;10.28;59.80;102294.81;4951034;28;108925;-66
2021/03/21 07:20:00;;;;;;;11.13;4.28;;;;;;;10.29;60.01;102285.94;4950731;28;124461;-66
2021/03/21 07:22:48;;;;;;;12.13;3.75;;;;;;;10.32;59.78;102274.44;4950545;28;122328;-67
2021/03/21 07:26:01;;;;;;;9.90;3.50;;;;;;;10.31;59.84;102278.88;4945368;28;108673;-67
2021/03/21 07:28:50;;;;;;;13.82;2.90;;;;;;;10.34;59.64;102272.66;4968447;22;108827;-69
2021/03/21 07:31:56;;;;;;;8.93;2.55;;;;;;;10.35;59.72;102273.50;4949888;28;124495;-69
2021/03/21 07:34:44;;;;;;;10.52;2.20;;;;;;;10.36;59.40;102264.66;4948344;28;124135;-70
2021/03/21 07:37:48;;;;;;;9.45;2.20;;;;;;;10.36;59.43;102269.94;4947959;28;109348;-69
2021/03/21 07:40:26;;;;;;;8.68;2.75;;;;;;;10.38;59.29;102278.72;4950181;28;109125;-69
2021/03/21 07:43:13;;;;;;;10.07;2.47;;;;;;;10.42;58.93;102280.44;4946673;28;124360;-69
2021/03/21 07:45:59;;;;;;;14.25;2.10;;;;;;;10.41;59.10;102286.63;4945793;28;123214;-69
2021/03/21 07:48:45;;;;;;;9.82;2.15;;;;;;;10.42;58.78;102283.06;4941258;28;109707;-69
2021/03/21 07:51:27;;;;;;;9.48;1.88;;;;;;;10.43;58.68;102292.75;4953517;28;110193;-69
2021/03/21 07:54:19;;;;;;;11.60;2.10;;;;;;;10.46;58.90;102292.69;4947154;28;124271;-69
2021/03/21 07:56:50;;;;;;;13.63;2.10;;;;;;;10.51;58.81;102290.84;4950877;28;124323;-69
2021/03/21 07:59:21;;;;;;;12.40;2.38;;;;;;;10.56;58.39;102294.22;4932593;28;109081;-70
2021/03/21 08:01:47;;;;;;;11.52;2.20;;;;;;;10.60;58.44;102293.25;4939919;28;109194;-69
2021/03/21 08:04:25;;;;;;;10.05;2.08;;;;;;;10.61;58.01;102297.66;4938854;28;124601;-69
2021/03/21 08:07:16;;;;;;;12.38;2.17;;;;;;;10.63;57.95;102298.50;4930942;28;122317;-70
2021/03/21 08:09:44;;;;;;;11.13;2.00;;;;;;;10.65;57.46;102293.16;4953044;28;109361;-69
2021/03/21 08:12:19;;;;;;;9.13;1.80;;;;;;;10.66;57.72;102285.19;4957178;28;109338;-69
2021/03/21 08:14:56;;;;;;;7.82;1.90;;;;;;;10.69;57.60;102279.81;4942281;28;124308;-69
2021/03/21 08:17:28;;;;;;;9.18;2.08;;;;;;;10.73;57.02;102285.03;4955671;28;124130;-69
2021/03/21 08:19:58;;;;;;;8.70;2.00;;;;;;;10.78;57.49;102283.19;4957109;28;109438;-69
2021/03/21 08:22:28;;;;;;;9.93;2.00;;;;;;;10.83;56.68;102270.66;4956460;28;108290;-69
2021/03/21 08:25:05;;;;;;;18.20;2.70;;;;;;;10.86;56.27;102275.91;4954908;28;124533;-69
2021/03/21 08:27:33;;;;;;;8.13;2.10;;;;;;;10.87;55.97;102262.63;4955179;28;124109;-70
2021/03/21 08:30:01;;;;;;;11.70;2.40;;;;;;;10.88;55.94;102263.50;4941922;28;109084;-69
2021/03/21 08:32:29;;;;;;;8.68;2.20;;;;;;;10.89;55.87;102270.56;4958113;28;109665;-69
2021/03/21 08:35:13;;;;;;;17.40;2.78;;;;;;;10.93;56.01;102280.16;4954988;28;124156;-69
2021/03/21 08:37:42;;;;;;;12.20;2.13;;;;;;;11.00;55.91;102286.19;4946576;28;123414;-69
2021/03/21 08:40:30;;;;;;;10.15;1.90;;;;;;;11.03;55.56;102294.94;4941793;28;109077;-69
2021/03/21 08:43:11;;;;;;;15.05;2.45;;;;;;;11.04;55.01;102299.34;4956484;28;110202;-69
2021/03/21 08:45:49;;;;;;;12.85;2.30;;;;;;;11.07;54.43;102307.19;4951197;28;122847;-70
2021/03/21 08:48:32;;;;;;;11.73;2.30;;;;;;;11.08;54.47;102316.91;4936227;28;124369;-69
2021/03/21 08:51:11;;;;;;;11.27;2.20;;;;;;;11.07;54.74;102317.81;4943098;28;109857;-69
2021/03/21 08:53:41;;;;;;;13.05;2.55;;;;;;;11.09;54.73;102310.72;4956277;28;108875;-69
2021/03/21 08:56:35;;;;;;;13.77;2.65;;;;;;;11.10;54.75;102307.16;4948413;28;124090;-69
2021/03/21 08:59:26;;;;;;;11.93;2.22;;;;;;;11.12;54.64;102303.59;4939904;28;124181;-69
2021/03/21 09:02:01;;;;;;;11.88;2.58;;;;;;;11.14;54.54;102313.25;4957431;28;109502;-69
2021/03/21 09:04:29;;;;;;;15.95;2.45;;;;;;;11.17;54.35;102322.91;4954597;28;109296;-69
2021/03/21 09:07:38;;;;;;;11.23;2.70;;;;;;;11.20;54.63;102328.16;4947535;28;124263;-69
2021/03/21 09:10:25;;;;;;;17.90;2.67;;;;;;;11.23;54.17;102328.94;4942323;28;123221;-69
2021/03/21 09:13:18;;;;;;;13.70;2.83;;;;;;;11.23;54.42;102322.78;4954026;28;108171;-69
2021/03/21 09:15:46;;;;;;;16.48;3.05;;;;;;;11.26;53.84;102327.97;4941826;28;109755;-69
2021/03/21 09:18:16;;;;;;;16.35;2.80;;;;;;;11.27;54.21;102329.75;4952020;28;124584;-69
2021/03/21 09:21:17;;;;;;;15.27;2.67;;;;;;;11.27;53.90;102343.00;4938906;28;122779;-69
2021/03/21 09:23:49;;;;;;;18.27;3.30;;;;;;;11.27;53.60;102340.34;4938990;28;109245;-69
2021/03/21 09:26:16;;;;;;;15.27;3.00;;;;;;;11.27;53.19;102335.06;4943100;28;107686;-69
2021/03/21 09:28:52;;;;;;;19.77;3.10;;;;;;;11.25;53.15;102331.56;4949803;28;124218;-69
2021/03/21 09:31:19;;;;;;;19.08;3.28;;;;;;;11.26;52.94;102331.53;4935765;28;123533;-69
2021/03/21 09:34:19;;;;;;;18.63;3.47;;;;;;;11.27;53.38;102335.06;4932313;28;110755;-69
2021/03/21 09:36:58;;;;;;;18.48;3.63;;;;;;;11.31;53.14;102339.38;4949637;28;110277;-69
2021/03/21 09:39:32;;;;;;;22.25;4.28;;;;;;;11.34;52.99;102341.97;4954576;28;124978;-69
2021/03/21 09:42:01;;;;;;;18.45;3.58;;;;;;;11.35;52.75;102333.06;4953266;28;125251;-69
2021/03/21 09:44:28;;;;;;;20.88;3.65;;;;;;;11.38;53.14;102338.31;4947504;28;109255;-69
2021/03/21 09:47:03;;;;;;;21.63;3.88;;;;;;;11.42;53.05;102345.28;4949380;28;107914;-69
2021/03/21 09:49:50;;;;;;;22.30;3.65;;;;;;;11.46;52.84;102348.72;4959381;28;124609;-69
2021/03/21 09:52:25;;;;;;;22.83;4.45;;;;;;;11.46;52.64;102341.63;4954900;28;124115;-69
2021/03/21 09:55:01;;;;;;;16.77;3.33;;;;;;;11.45;52.34;102337.25;4945774;28;108026;-69
2021/03/21 09:57:37;;;;;;;21.13;3.67;;;;;;;11.47;52.56;102330.13;4936056;28;108442;-69
2021/03/21 10:00:15;;;;;;;23.80;3.80;;;;;;;11.48;52.63;102353.09;4936800;28;124588;-69
2021/03/21 10:02:45;;;;;;;23.25;3.90;;;;;;;11.50;52.88;102353.91;4938063;28;122988;-69
2021/03/21 10:05:53;;;;;;;15.88;3.58;;;;;;;11.50;52.72;102359.22;4942142;28;109018;-69
2021/03/21 10:08:38;;;;;;;;;;;;;;;11.56;53.21;102367.94;4955651;28;108973;-69
2021/03/21 10:11:08;;;;;;;17.80;3.53;;;;;;;11.62;53.17;102367.78;4941122;28;124194;-68
2021/03/21 10:13:39;;;;;;;25.33;4.05;;;;;;;11.64;53.10;102366.88;4941274;28;123826;-69
2021/03/21 10:16:14;;;;;;;18.48;3.58;;;;;;;11.64;52.97;102366.88;4951908;28;114117;-69
2021/03/21 10:18:50;;;;;;;;;;;;;;;11.67;53.03;102376.50;4936542;28;113437;-68
2021/03/21 10:21:23;;;;;;;18.00;3.57;;;;;;;11.74;52.52;102372.81;4935067;28;123808;-69
2021/03/21 10:23:57;;;;;;;24.73;4.32;;;;;;;11.78;52.05;102379.78;4949100;28;123933;-68
2021/03/21 10:26:26;;;;;;;24.83;3.60;;;;;;;11.82;51.85;102381.44;4944182;28;114209;-68
2021/03/21 10:29:00;;;;;;;23.55;4.20;;;;;;;11.87;51.36;102379.53;4950892;28;114939;-68
2021/03/21 10:31:29;;;;;;;22.83;3.88;;;;;;;11.92;51.61;102375.91;4951801;28;124726;-69
2021/03/21 10:34:02;;;;;;;22.00;3.97;;;;;;;11.92;51.60;102376.78;4938652;28;123681;-68
2021/03/21 10:36:42;;;;;;;21.90;4.47;;;;;;;11.92;51.22;102373.28;4950358;28;114919;-69
2021/03/21 10:39:20;;;;;;;26.63;4.30;;;;;;;11.89;51.16;102376.84;4940121;28;114266;-69
2021/03/21 10:42:10;;;;;;;27.17;4.30;;;;;;;11.87;51.08;102379.53;4950966;28;124051;-69
2021/03/21 10:44:36;;;;;;;20.92;4.43;;;;;;;11.86;50.84;102388.41;4941611;28;123922;-69
2021/03/21 10:47:21;;;;;;;18.15;3.90;;;;;;;11.82;51.05;102381.44;4934343;28;114294;-69
2021/03/21 10:50:01;;;;;;;26.73;4.43;;;;;;;11.81;50.88;102378.81;4951376;28;113402;-69
2021/03/21 10:52:36;;;;;;;21.48;4.18;;;;;;;11.79;50.84;102381.53;4936800;28;123736;-69
2021/03/21 10:55:13;;;;;;;27.83;5.05;;;;;;;11.77;50.59;102378.06;4949394;28;122775;-69
2021/03/21 10:57:43;;;;;;;20.98;4.30;;;;;;;11.79;50.77;102380.63;4947464;28;114561;-69
2021/03/21 11:00:26;;;;;;;29.95;4.70;;;;;;;11.83;50.42;102372.56;4949764;28;114093;-69
2021/03/21 11:03:02;;;;;;;30.13;4.65;;;;;;;11.89;49.70;102374.19;4950777;28;124036;-69
2021/03/21 11:05:36;;;;;;;25.58;4.13;;;;;;;11.97;49.93;102368.72;4949412;28;123610;-69
2021/03/21 11:08:18;;;;;;;24.55;4.43;;;;;;;12.01;49.34;102375.69;4928883;28;113600;-70
2021/03/21 11:10:50;;;;;;;20.55;4.38;;;;;;;12.08;49.33;102361.34;4950191;28;113955;-69
2021/03/21 11:13:26;;;;;;;17.58;4.10;;;;;;;12.14;49.78;102361.16;4962520;28;122150;-70
2021/03/21 11:15:52;;;;;;;23.90;4.75;;;;;;;12.22;49.93;102358.28;4943889;28;124170;-69
2021/03/21 11:18:30;;;;;;;24.02;4.18;;;;;;;12.29;49.46;102364.31;4937803;28;115046;-69
2021/03/21 11:21:19;;;;;;;21.95;4.55;;;;;;;12.37;49.58;102349.03;4950710;28;114949;-69
2021/03/21 11:23:59;;;;;;;24.50;4.65;;;;;;;12.42;49.38;102360.41;4948474;28;124230;-69
2021/03/21 11:26:28;;;;;;;22.05;4.00;;;;;;;12.43;48.80;102372.75;4934784;28;124678;-69
2021/03/21 11:29:01;;;;;;;21.13;4.63;;;;;;;12.39;48.79;102366.66;4944629;28;114047;-69
2021/03/21 11:31:29;;;;;;;25.00;4.45;;;;;;;12.37;48.66;102371.16;4932339;28;114131;-69
2021/03/21 11:33:56;;;;;;;19.98;4.15;;;;;;;12.34;48.38;102365.03;4936724;28;123624;-69
2021/03/21 11:36:29;;;;;;;25.83;4.22;;;;;;;12.32;48.01;102369.53;4952420;28;124218;-69
2021/03/21 11:38:56;;;;;;;22.05;4.13;;;;;;;12.30;48.52;102364.28;4948190;28;114346;-69
2021/03/21 11:41:28;;;;;;;20.20;4.15;;;;;;;12.31;48.34;102373.13;4950241;28;112981;-69
2021/03/21 11:44:27;;;;;;;18.15;3.63;;;;;;;12.31;48.30;102359.84;4948120;28;124015;-69
2021/03/21 11:46:56;;;;;;;24.25;4.45;;;;;;;12.34;48.35;102357.06;4945214;28;123933;-70
2021/03/21 11:49:25;;;;;;;22.63;4.22;;;;;;;12.40;48.48;102357.78;4927528;28;114120;-70
2021/03/21 11:52:01;;;;;;;27.40;4.72;;;;;;;12.46;48.59;102352.28;4945775;28;113807;-70
2021/03/21 11:54:31;;;;;;;19.23;4.57;;;;;;;12.54;48.32;102354.72;4937295;28;124446;-71
2021/03/21 11:57:20;;;;;;;22.48;4.20;;;;;;;12.58;48.29;102351.09;4951965;28;122668;-70
2021/03/21 12:00:01;;;;;;;25.73;4.47;;;;;;;12.61;48.64;102366.06;4936802;28;114964;-70